Time;durP1;ratioP1;P1;durP2;ratioP2;P2;SDS_P1;SDS_P2;PMS_P1;PMS_P2;Temp;Humidity;BMP_temperature;BMP_pressure;BME280_temperature;BME280_humidity;BME280_pressure;Samples;Min_cycle;Max_cycle;Signal;HPM_P1;HPM_P2
2022/01/16 00:00:26;;;;;;;;;;;1.00;99.90;;;;;;5068637;28;19924;-78
2022/01/16 00:05:39;;;;;;;;;;;1.00;99.90;;;;;;5076112;28;19931;-78
2022/01/16 00:08:06;;;;;;;;;;;1.00;99.90;;;;;;5074889;28;20015;-78
2022/01/16 00:10:33;;;;;;;;;;;1.00;99.90;;;;;;5076600;28;19932;-78
2022/01/16 00:13:00;;;;;;;;;;;1.00;99.90;;;;;;5075594;28;20015;-78
2022/01/16 00:15:27;;;;;;;;;;;1.00;99.90;;;;;;5083964;28;20687;-78
2022/01/16 00:17:57;;;;;;;;;;;1.10;99.90;;;;;;5074925;28;19932;-77
2022/01/16 00:20:27;;;;;;;;;;;1.00;99.90;;;;;;5083381;28;19924;-77
2022/01/16 00:22:56;;;;;;;;;;;1.20;99.90;;;;;;5071602;28;19924;-77
2022/01/16 00:25:23;;;;;;;;;;;1.20;99.90;;;;;;5091663;28;19924;-77
2022/01/16 00:27:50;;;;;;;;;;;1.30;99.90;;;;;;5077918;28;20357;-77
2022/01/16 00:30:17;;;;;;;;;;;1.30;99.90;;;;;;5083213;28;19925;-77
2022/01/16 00:32:44;;;;;;;;;;;1.30;99.90;;;;;;5068643;28;20368;-77
2022/01/16 00:35:12;;;;;;;;;;;1.30;99.90;;;;;;5075640;28;20391;-77
2022/01/16 00:37:39;;;;;;;;;;;1.30;99.90;;;;;;5078152;28;19928;-78
2022/01/16 00:40:08;;;;;;;;;;;1.30;99.90;;;;;;5071043;28;20388;-77
2022/01/16 00:42:35;;;;;;;;;;;1.30;99.90;;;;;;5077703;28;19927;-76
2022/01/16 00:45:02;;;;;;;;;;;1.30;99.90;;;;;;5086826;28;19983;-77
2022/01/16 00:47:29;;;;;;;;;;;1.40;99.90;;;;;;5082284;28;20083;-77
2022/01/16 00:49:56;;;;;;;;;;;1.50;99.90;;;;;;5091247;28;20416;-77
2022/01/16 00:52:22;;;;;;;;;;;1.50;99.90;;;;;;5078421;28;19929;-78
2022/01/16 00:54:49;;;;;;;;;;;1.50;99.90;;;;;;5086669;28;19930;-78
2022/01/16 00:57:17;;;;;;;;;;;1.60;99.90;;;;;;5094360;28;20019;-77
2022/01/16 00:59:44;;;;;;;;;;;1.60;99.90;;;;;;5085273;28;20334;-78
2022/01/16 01:02:10;;;;;;;;;;;1.70;99.90;;;;;;5078872;28;19958;-78
2022/01/16 01:04:37;;;;;;;;;;;1.70;99.90;;;;;;5081499;28;19925;-78
2022/01/16 01:07:04;;;;;;;;;;;1.80;99.90;;;;;;5085352;28;19938;-78
2022/01/16 01:09:31;;;;;;;;;;;1.80;99.90;;;;;;5078192;28;19925;-77
2022/01/16 01:11:58;;;;;;;;;;;2.00;99.90;;;;;;5075594;28;19978;-77
2022/01/16 01:14:37;;;;;;;;;;;1.90;99.90;;;;;;5074862;28;19932;-77
2022/01/16 01:17:07;;;;;;;;;;;2.00;99.90;;;;;;5090569;28;19924;-77
2022/01/16 01:19:34;;;;;;;;;;;2.00;99.90;;;;;;5086753;28;20003;-80
2022/01/16 01:22:02;;;;;;;;;;;2.00;99.90;;;;;;5088485;28;19924;-80
2022/01/16 01:24:29;;;;;;;;;;;2.10;99.90;;;;;;5084575;28;19988;-81
2022/01/16 01:27:02;;;;;;;;;;;2.10;99.90;;;;;;5084491;28;19932;-80
2022/01/16 01:29:31;;;;;;;;;;;2.10;99.90;;;;;;5085848;28;19932;-80
2022/01/16 01:31:58;;;;;;;;;;;2.10;99.90;;;;;;5083991;28;19990;-81
2022/01/16 01:34:25;;;;;;;;;;;2.20;99.90;;;;;;5081785;28;20368;-81
2022/01/16 01:36:51;;;;;;;;;;;2.20;99.90;;;;;;5076443;28;19948;-79
2022/01/16 01:39:19;;;;;;;;;;;2.20;99.90;;;;;;5089112;28;19970;-81
2022/01/16 01:41:47;;;;;;;;;;;2.20;99.90;;;;;;5074485;28;19925;-80
2022/01/16 01:52:27;;;;;;;;;;;2.40;99.90;;;;;;5074613;28;19938;-80
2022/01/16 01:54:54;;;;;;;;;;;2.40;99.90;;;;;;5076213;28;19925;-80
2022/01/16 01:57:21;;;;;;;;;;;2.40;99.90;;;;;;5092558;28;19924;-80
2022/01/16 01:59:47;;;;;;;;;;;2.50;99.90;;;;;;5085155;28;20011;-80
2022/01/16 02:02:15;;;;;;;;;;;2.50;99.90;;;;;;5080682;28;19983;-81
2022/01/16 02:04:42;;;;;;;;;;;2.50;99.90;;;;;;5087618;28;19935;-79
2022/01/16 02:07:09;;;;;;;;;;;2.50;99.90;;;;;;5081022;28;19930;-80
2022/01/16 02:09:35;;;;;;;;;;;2.50;99.90;;;;;;5081338;28;20046;-80
2022/01/16 02:12:02;;;;;;;;;;;2.50;99.90;;;;;;5087526;28;19932;-80
2022/01/16 02:14:32;;;;;;;;;;;2.50;99.90;;;;;;5078821;28;20033;-78
2022/01/16 02:28:08;;;;;;;;;;;2.60;99.90;;;;;;5072604;28;19931;-79
2022/01/16 02:36:26;;;;;;;;;;;2.70;99.90;;;;;;5018873;28;20385;-79
2022/01/16 02:38:57;;;;;;;;;;;2.70;99.90;;;;;;5005454;28;19967;-80
2022/01/16 02:41:24;;;;;;;;;;;2.70;99.90;;;;;;5049903;28;19934;-80
2022/01/16 02:43:53;;;;;;;;;;;2.80;99.90;;;;;;5076522;28;20298;-80
2022/01/16 02:46:39;;;;;;;;;;;2.80;99.90;;;;;;5084266;28;19947;-80
2022/01/16 02:49:24;;;;;;;;;;;2.80;99.90;;;;;;5085181;28;19928;-80
2022/01/16 02:51:51;;;;;;;;;;;2.80;99.90;;;;;;5067897;28;19929;-80
2022/01/16 02:54:20;;;;;;;;;;;2.80;99.90;;;;;;5077242;28;19924;-80
2022/01/16 02:56:48;;;;;;;;;;;2.80;99.90;;;;;;5091182;28;19924;-80
2022/01/16 02:59:15;;;;;;;;;;;2.80;99.90;;;;;;5081285;28;19931;-81
2022/01/16 03:01:44;;;;;;;;;;;2.80;99.90;;;;;;5086911;28;19924;-80
2022/01/16 03:04:11;;;;;;;;;;;2.80;99.90;;;;;;5085127;28;19928;-80
2022/01/16 03:06:40;;;;;;;;;;;2.80;99.90;;;;;;5100289;28;20402;-80
2022/01/16 03:09:07;;;;;;;;;;;2.80;99.90;;;;;;5082494;28;19971;-80
2022/01/16 03:11:37;;;;;;;;;;;2.80;99.90;;;;;;5079768;28;20465;-80
2022/01/16 03:14:04;;;;;;;;;;;2.80;99.90;;;;;;5079832;28;19935;-80
2022/01/16 03:16:31;;;;;;;;;;;2.80;99.90;;;;;;5083952;28;20054;-80
2022/01/16 03:22:02;;;;;;;;;;;2.80;99.90;;;;;;5078931;28;19932;-80
2022/01/16 03:24:29;;;;;;;;;;;2.80;99.90;;;;;;5088334;28;19988;-81
2022/01/16 03:26:59;;;;;;;;;;;2.80;99.90;;;;;;5091732;28;19995;-81
2022/01/16 03:29:26;;;;;;;;;;;2.80;99.90;;;;;;5097052;28;20007;-80
2022/01/16 03:31:53;;;;;;;;;;;2.80;99.90;;;;;;5096832;28;19963;-81
2022/01/16 03:34:20;;;;;;;;;;;2.70;99.90;;;;;;5093823;28;19928;-81
2022/01/16 03:36:47;;;;;;;;;;;2.70;99.90;;;;;;5090594;28;19992;-81
2022/01/16 03:39:13;;;;;;;;;;;2.70;99.90;;;;;;5092811;28;19925;-82
2022/01/16 03:41:40;;;;;;;;;;;2.70;99.90;;;;;;5096661;28;19959;-82
2022/01/16 03:44:08;;;;;;;;;;;2.70;99.90;;;;;;5094903;28;19964;-81
2022/01/16 03:46:36;;;;;;;;;;;2.70;99.90;;;;;;5086363;28;19925;-81
2022/01/16 03:49:04;;;;;;;;;;;2.70;99.90;;;;;;5106595;28;20049;-81
2022/01/16 03:51:32;;;;;;;;;;;2.70;99.90;;;;;;5093049;28;19988;-81
2022/01/16 03:54:00;;;;;;;;;;;2.60;99.90;;;;;;5087476;28;20323;-81
2022/01/16 03:56:27;;;;;;;;;;;2.60;99.90;;;;;;5088762;28;19924;-80
2022/01/16 03:58:54;;;;;;;;;;;2.60;99.90;;;;;;5075689;28;20023;-81
2022/01/16 04:01:24;;;;;;;;;;;2.60;99.90;;;;;;5088015;28;20019;-81
2022/01/16 04:03:50;;;;;;;;;;;2.50;99.90;;;;;;5090704;28;19947;-81
2022/01/16 04:06:18;;;;;;;;;;;2.50;99.90;;;;;;5088632;28;19934;-82
2022/01/16 04:08:45;;;;;;;;;;;2.60;99.90;;;;;;5096753;28;19932;-80
2022/01/16 04:11:12;;;;;;;;;;;2.50;99.90;;;;;;5076197;28;19932;-80
2022/01/16 04:13:48;;;;;;;;;;;2.50;99.90;;;;;;5082720;28;19991;-80
2022/01/16 04:16:15;;;;;;;;;;;2.50;99.90;;;;;;5074557;28;19925;-80
2022/01/16 04:18:43;;;;;;;;;;;2.40;99.90;;;;;;5091732;28;19929;-80
2022/01/16 04:21:10;;;;;;;;;;;2.40;99.90;;;;;;5090546;28;20015;-80
2022/01/16 04:23:36;;;;;;;;;;;2.30;99.90;;;;;;5078805;28;20462;-82
2022/01/16 04:26:03;;;;;;;;;;;2.30;99.90;;;;;;5074006;28;20341;-79
2022/01/16 04:28:30;;;;;;;;;;;2.30;99.90;;;;;;5072910;28;19925;-79
2022/01/16 04:30:56;;;;;;;;;;;2.30;99.90;;;;;;5073730;28;19930;-79
2022/01/16 04:33:23;;;;;;;;;;;2.30;99.90;;;;;;5070727;28;19930;-79
2022/01/16 04:35:51;;;;;;;;;;;2.30;99.90;;;;;;5080661;28;19931;-80
2022/01/16 04:38:18;;;;;;;;;;;2.30;99.90;;;;;;5091898;28;20417;-79
2022/01/16 04:43:47;;;;;;;;;;;2.20;99.90;;;;;;5093724;28;19928;-79
2022/01/16 04:43:48;;;;;;;;;;;2.20;99.90;;;;;;5075590;28;19940;-80
2022/01/16 04:46:15;;;;;;;;;;;2.20;99.90;;;;;;5075198;28;19932;-79
2022/01/16 04:48:44;;;;;;;;;;;2.20;99.90;;;;;;5091443;28;19930;-80
2022/01/16 04:51:12;;;;;;;;;;;2.20;99.90;;;;;;5079822;28;19924;-82
2022/01/16 04:53:39;;;;;;;;;;;2.20;99.90;;;;;;5081920;28;19924;-80
2022/01/16 04:56:06;;;;;;;;;;;2.10;99.90;;;;;;5074655;28;19947;-80
2022/01/16 04:58:33;;;;;;;;;;;2.20;99.90;;;;;;5086731;28;19925;-80
2022/01/16 05:00:59;;;;;;;;;;;2.20;99.90;;;;;;5087499;28;19924;-80
2022/01/16 05:03:27;;;;;;;;;;;2.30;99.90;;;;;;5092754;28;19992;-80
2022/01/16 05:05:54;;;;;;;;;;;2.30;99.90;;;;;;5085733;28;19988;-81
2022/01/16 05:08:22;;;;;;;;;;;2.30;99.90;;;;;;5091679;28;19931;-81
2022/01/16 05:10:52;;;;;;;;;;;2.40;99.90;;;;;;5087208;28;19937;-80
2022/01/16 05:13:30;;;;;;;;;;;2.30;99.90;;;;;;5091701;28;19929;-80
2022/01/16 05:18:41;;;;;;;;;;;2.20;99.90;;;;;;5097069;28;19931;-81
2022/01/16 05:21:08;;;;;;;;;;;2.20;99.90;;;;;;5099326;28;19928;-80
2022/01/16 05:23:36;;;;;;;;;;;2.20;99.90;;;;;;5089926;28;19928;-80
2022/01/16 05:26:04;;;;;;;;;;;2.20;99.90;;;;;;5081350;28;19975;-80
2022/01/16 05:28:31;;;;;;;;;;;2.10;99.90;;;;;;5073233;28;19925;-80
2022/01/16 05:30:58;;;;;;;;;;;2.20;99.90;;;;;;5072043;28;20399;-79
2022/01/16 05:33:25;;;;;;;;;;;2.20;99.90;;;;;;5074249;28;19935;-80
2022/01/16 05:35:51;;;;;;;;;;;2.20;99.90;;;;;;5087095;28;19987;-80
2022/01/16 05:38:18;;;;;;;;;;;2.90;99.90;;;;;;5074093;28;20387;-80
2022/01/16 05:40:46;;;;;;;;;;;2.20;99.90;;;;;;5083160;28;20310;-81
2022/01/16 05:43:13;;;;;;;;;;;2.20;99.90;;;;;;5093553;28;19988;-81
2022/01/16 05:45:39;;;;;;;;;;;2.20;99.90;;;;;;5093168;28;20003;-81
2022/01/16 05:48:06;;;;;;;;;;;2.30;99.90;;;;;;5084065;28;19996;-81
2022/01/16 05:50:33;;;;;;;;;;;2.30;99.90;;;;;;5090481;28;19929;-80
2022/01/16 05:53:00;;;;;;;;;;;2.30;99.90;;;;;;5078558;28;20062;-81
2022/01/16 05:55:35;;;;;;;;;;;2.30;99.90;;;;;;5093138;28;20018;-81
2022/01/16 05:58:03;;;;;;;;;;;2.30;99.90;;;;;;5083132;28;19970;-82
2022/01/16 06:00:30;;;;;;;;;;;2.30;99.90;;;;;;5083345;28;19931;-81
2022/01/16 06:02:57;;;;;;;;;;;2.30;99.90;;;;;;5091459;28;19924;-81
2022/01/16 06:05:24;;;;;;;;;;;2.30;99.90;;;;;;5089014;28;19956;-82
2022/01/16 06:07:54;;;;;;;;;;;2.30;99.90;;;;;;5091802;28;19966;-81
2022/01/16 06:10:20;;;;;;;;;;;2.30;99.90;;;;;;5089203;28;19960;-80
2022/01/16 06:12:47;;;;;;;;;;;2.40;99.90;;;;;;5091497;28;20010;-82
2022/01/16 06:15:15;;;;;;;;;;;2.40;99.90;;;;;;5089069;28;19931;-80
2022/01/16 06:17:42;;;;;;;;;;;2.40;99.90;;;;;;5081319;28;20499;-81
2022/01/16 06:20:09;;;;;;;;;;;2.40;99.90;;;;;;5087846;28;19924;-81
2022/01/16 06:22:35;;;;;;;;;;;2.50;99.90;;;;;;5091703;28;20027;-80
2022/01/16 06:25:02;;;;;;;;;;;2.50;99.90;;;;;;5078235;28;20019;-80
2022/01/16 06:27:29;;;;;;;;;;;2.50;99.90;;;;;;5071918;28;20039;-81
2022/01/16 06:29:55;;;;;;;;;;;2.60;99.90;;;;;;5066381;28;20027;-80
2022/01/16 06:32:23;;;;;;;;;;;2.60;99.90;;;;;;5069321;28;19932;-81
2022/01/16 06:34:50;;;;;;;;;;;2.60;99.90;;;;;;5070150;28;19977;-81
2022/01/16 06:37:16;;;;;;;;;;;2.60;99.90;;;;;;5071407;28;19928;-81
2022/01/16 06:39:43;;;;;;;;;;;2.60;99.90;;;;;;5067112;28;19929;-80
2022/01/16 06:42:10;;;;;;;;;;;2.70;99.90;;;;;;5065909;28;19933;-81
2022/01/16 06:44:37;;;;;;;;;;;2.70;99.90;;;;;;5067724;28;19948;-78
2022/01/16 06:47:06;;;;;;;;;;;2.70;99.90;;;;;;5062821;28;20721;-79
2022/01/16 06:49:34;;;;;;;;;;;2.80;99.90;;;;;;5067685;28;20391;-79
2022/01/16 06:52:01;;;;;;;;;;;2.80;99.90;;;;;;5068133;28;20012;-79
2022/01/16 06:54:27;;;;;;;;;;;2.80;99.90;;;;;;5074115;28;19968;-79
2022/01/16 06:56:54;;;;;;;;;;;2.80;99.90;;;;;;5068384;28;19924;-79
2022/01/16 06:59:21;;;;;;;;;;;2.80;99.90;;;;;;5066996;28;19929;-80
2022/01/16 07:01:47;;;;;;;;;;;2.90;99.90;;;;;;5066190;28;19955;-80
2022/01/16 07:04:15;;;;;;;;;;;2.80;99.90;;;;;;5068963;28;19940;-80
2022/01/16 07:06:43;;;;;;;;;;;2.80;99.90;;;;;;5073901;28;20748;-81
2022/01/16 07:09:10;;;;;;;;;;;2.80;99.90;;;;;;5070526;28;19928;-80
2022/01/16 07:11:37;;;;;;;;;;;2.80;99.90;;;;;;5073071;28;19939;-81
2022/01/16 07:14:04;;;;;;;;;;;2.80;99.90;;;;;;5066912;28;20384;-80
2022/01/16 07:16:30;;;;;;;;;;;2.90;99.90;;;;;;5060653;28;20035;-78
2022/01/16 07:18:57;;;;;;;;;;;2.90;99.90;;;;;;5064498;28;20582;-79
2022/01/16 07:21:23;;;;;;;;;;;2.90;99.90;;;;;;5060857;28;19924;-78
2022/01/16 07:23:53;;;;;;;;;;;2.90;99.90;;;;;;5062461;28;19928;-79
2022/01/16 07:26:20;;;;;;;;;;;3.00;99.90;;;;;;5062749;28;19931;-78
2022/01/16 07:28:46;;;;;;;;;;;2.90;99.90;;;;;;5082173;28;19927;-78
2022/01/16 07:31:13;;;;;;;;;;;3.00;99.90;;;;;;5081144;28;20453;-78
2022/01/16 07:33:40;;;;;;;;;;;2.90;99.90;;;;;;5081555;28;19924;-77
2022/01/16 07:36:06;;;;;;;;;;;2.90;99.90;;;;;;5077975;28;20014;-79
2022/01/16 07:38:33;;;;;;;;;;;2.90;99.90;;;;;;5085902;28;19924;-79
2022/01/16 07:41:01;;;;;;;;;;;2.90;99.90;;;;;;5086153;28;20286;-78
2022/01/16 07:43:28;;;;;;;;;;;2.90;99.90;;;;;;5085541;28;19931;-79
2022/01/16 07:45:55;;;;;;;;;;;2.90;99.90;;;;;;5078385;28;19924;-78
2022/01/16 07:48:21;;;;;;;;;;;2.90;99.90;;;;;;5077887;28;19924;-79
2022/01/16 07:50:48;;;;;;;;;;;2.90;99.90;;;;;;5081314;28;20022;-79
2022/01/16 07:53:14;;;;;;;;;;;2.80;99.90;;;;;;5081553;28;19924;-77
2022/01/16 07:55:41;;;;;;;;;;;2.90;99.90;;;;;;5089791;28;20380;-78
2022/01/16 07:58:09;;;;;;;;;;;2.80;99.90;;;;;;5081716;28;19925;-77
2022/01/16 08:00:53;;;;;;;;;;;2.90;99.90;;;;;;5082829;28;19924;-78
2022/01/16 08:03:20;;;;;;;;;;;2.90;99.90;;;;;;5077079;28;19924;-79
2022/01/16 08:05:46;;;;;;;;;;;2.80;99.90;;;;;;5075386;28;19924;-78
2022/01/16 08:08:13;;;;;;;;;;;2.80;99.90;;;;;;5082759;28;20034;-77
2022/01/16 08:10:40;;;;;;;;;;;2.80;99.90;;;;;;5091182;28;20023;-78
2022/01/16 08:13:07;;;;;;;;;;;2.90;99.90;;;;;;5074632;28;19925;-79
2022/01/16 08:15:35;;;;;;;;;;;2.90;99.90;;;;;;5073105;28;19930;-79
2022/01/16 08:18:01;;;;;;;;;;;2.90;99.90;;;;;;5074744;28;19931;-79
2022/01/16 08:20:28;;;;;;;;;;;2.80;99.90;;;;;;5084494;28;19931;-79
2022/01/16 08:22:55;;;;;;;;;;;2.80;99.90;;;;;;5079112;28;20008;-78
2022/01/16 08:25:22;;;;;;;;;;;2.80;99.90;;;;;;5069145;28;20290;-77
2022/01/16 08:27:49;;;;;;;;;;;2.80;99.90;;;;;;5075485;28;19946;-77
2022/01/16 08:30:16;;;;;;;;;;;2.80;99.90;;;;;;5090121;28;20410;-78
2022/01/16 08:32:44;;;;;;;;;;;2.90;99.90;;;;;;5095102;28;19924;-78
2022/01/16 08:35:11;;;;;;;;;;;2.90;99.90;;;;;;5077581;28;20362;-79
2022/01/16 08:37:38;;;;;;;;;;;2.90;99.90;;;;;;5083324;28;19924;-79
2022/01/16 08:40:05;;;;;;;;;;;2.90;99.90;;;;;;5085653;28;19999;-79
2022/01/16 08:42:32;;;;;;;;;;;2.90;99.90;;;;;;5077091;28;19951;-79
2022/01/16 08:44:58;;;;;;;;;;;2.90;99.90;;;;;;5087456;28;19931;-79
2022/01/16 08:47:26;;;;;;;;;;;2.90;99.90;;;;;;5085648;28;19972;-79
2022/01/16 08:49:54;;;;;;;;;;;2.90;99.90;;;;;;5080527;28;20383;-79
2022/01/16 08:52:22;;;;;;;;;;;2.90;99.90;;;;;;5082592;28;19924;-79
2022/01/16 08:54:48;;;;;;;;;;;3.00;99.90;;;;;;5100340;28;19924;-81
2022/01/16 08:57:15;;;;;;;;;;;2.90;99.90;;;;;;5100283;28;19924;-80
2022/01/16 08:59:42;;;;;;;;;;;3.00;99.90;;;;;;5100535;28;20019;-79
2022/01/16 09:02:08;;;;;;;;;;;3.00;99.90;;;;;;5087021;28;19925;-80
2022/01/16 09:04:35;;;;;;;;;;;3.00;99.90;;;;;;5082814;28;19925;-81
2022/01/16 09:07:03;;;;;;;;;;;3.00;99.90;;;;;;5078020;28;20315;-80
2022/01/16 09:09:31;;;;;;;;;;;3.00;99.90;;;;;;5083970;28;20011;-80
2022/01/16 09:11:58;;;;;;;;;;;3.00;99.90;;;;;;5083908;28;19932;-80
2022/01/16 09:14:25;;;;;;;;;;;3.00;99.90;;;;;;5084926;28;19928;-80
2022/01/16 09:16:52;;;;;;;;;;;3.00;99.90;;;;;;5098109;28;19960;-80
2022/01/16 09:19:18;;;;;;;;;;;2.90;99.90;;;;;;5084765;28;19988;-80
2022/01/16 09:21:45;;;;;;;;;;;2.90;99.90;;;;;;5099021;28;19934;-80
2022/01/16 09:24:13;;;;;;;;;;;2.90;99.90;;;;;;5081138;28;20010;-80
2022/01/16 09:26:40;;;;;;;;;;;2.90;99.90;;;;;;5080960;28;19989;-79
2022/01/16 09:29:06;;;;;;;;;;;2.90;99.90;;;;;;5070884;28;19963;-81
2022/01/16 09:31:33;;;;;;;;;;;2.90;99.90;;;;;;5093058;28;19932;-80
2022/01/16 09:34:00;;;;;;;;;;;2.90;99.90;;;;;;5090351;28;19924;-79
2022/01/16 09:36:27;;;;;;;;;;;2.90;99.90;;;;;;5090310;28;19935;-80
2022/01/16 09:38:54;;;;;;;;;;;2.90;99.90;;;;;;5107261;28;19955;-80
2022/01/16 09:41:22;;;;;;;;;;;2.90;99.90;;;;;;5088335;28;19998;-80
2022/01/16 09:43:49;;;;;;;;;;;2.90;99.90;;;;;;5085853;28;19966;-79
2022/01/16 09:46:16;;;;;;;;;;;2.90;99.90;;;;;;5087857;28;20018;-80
2022/01/16 09:48:43;;;;;;;;;;;3.00;99.90;;;;;;5084943;28;19924;-81
2022/01/16 09:51:10;;;;;;;;;;;3.00;99.90;;;;;;5084879;28;19963;-79
2022/01/16 09:53:36;;;;;;;;;;;3.00;99.90;;;;;;5078621;28;20011;-81
2022/01/16 09:56:03;;;;;;;;;;;3.00;99.90;;;;;;5101790;28;19931;-81
2022/01/16 09:58:31;;;;;;;;;;;3.00;99.90;;;;;;5094214;28;19925;-80
2022/01/16 10:00:58;;;;;;;;;;;2.90;99.90;;;;;;5082700;28;19935;-80
2022/01/16 10:03:35;;;;;;;;;;;2.90;99.90;;;;;;5088951;28;20019;-80
2022/01/16 10:06:08;;;;;;;;;;;3.00;99.90;;;;;;5085484;28;19924;-80
2022/01/16 10:08:35;;;;;;;;;;;3.00;99.90;;;;;;5084643;28;19924;-80
2022/01/16 10:11:19;;;;;;;;;;;3.10;99.90;;;;;;5091952;28;20442;-80
2022/01/16 10:13:57;;;;;;;;;;;3.10;99.90;;;;;;5090704;28;19931;-79
2022/01/16 10:16:25;;;;;;;;;;;3.10;99.90;;;;;;5083514;28;19925;-79
2022/01/16 10:18:51;;;;;;;;;;;3.10;99.90;;;;;;5088869;28;19924;-79
2022/01/16 10:21:31;;;;;;;;;;;3.10;99.90;;;;;;5083171;28;20030;-79
2022/01/16 10:23:58;;;;;;;;;;;3.20;99.90;;;;;;5080630;28;19928;-80
2022/01/16 10:26:25;;;;;;;;;;;3.10;99.90;;;;;;5084641;28;19994;-80
2022/01/16 10:28:53;;;;;;;;;;;3.10;99.90;;;;;;5079967;28;19925;-79
2022/01/16 10:31:20;;;;;;;;;;;3.10;99.90;;;;;;5095219;28;19931;-80
2022/01/16 10:33:47;;;;;;;;;;;3.10;99.90;;;;;;5093864;28;19924;-80
2022/01/16 10:36:13;;;;;;;;;;;3.20;99.90;;;;;;5078724;28;19958;-80
2022/01/16 10:38:40;;;;;;;;;;;3.20;99.90;;;;;;5083302;28;20148;-80
2022/01/16 10:41:13;;;;;;;;;;;3.20;99.90;;;;;;5086078;28;19939;-81
2022/01/16 10:43:41;;;;;;;;;;;3.20;99.90;;;;;;5088723;28;19959;-80
2022/01/16 10:49:16;;;;;;;;;;;3.20;99.90;;;;;;5221052;22;19932;-79
2022/01/16 10:51:43;;;;;;;;;;;3.20;99.90;;;;;;5100410;28;20000;-81
2022/01/16 10:54:28;;;;;;;;;;;3.20;99.90;;;;;;5108844;28;19956;-79
2022/01/16 10:56:55;;;;;;;;;;;3.20;99.90;;;;;;5097450;28;19927;-79
2022/01/16 10:59:22;;;;;;;;;;;3.20;99.90;;;;;;5101369;28;20020;-79
2022/01/16 11:02:06;;;;;;;;;;;3.20;99.90;;;;;;5101574;28;20373;-81
2022/01/16 11:04:34;;;;;;;;;;;3.30;99.90;;;;;;5108093;28;19931;-80
2022/01/16 11:07:01;;;;;;;;;;;3.40;99.90;;;;;;5112303;28;19935;-80
2022/01/16 11:09:28;;;;;;;;;;;3.40;99.90;;;;;;5110743;28;19951;-79
2022/01/16 11:11:59;;;;;;;;;;;3.40;99.90;;;;;;5117171;28;20023;-81
2022/01/16 11:14:26;;;;;;;;;;;3.40;99.90;;;;;;5098310;28;19932;-79
2022/01/16 11:16:53;;;;;;;;;;;3.50;99.90;;;;;;5078769;28;19932;-79
2022/01/16 11:19:21;;;;;;;;;;;3.40;99.90;;;;;;5077348;28;19938;-79
2022/01/16 11:21:53;;;;;;;;;;;3.40;99.90;;;;;;5088121;28;19932;-80
2022/01/16 11:24:33;;;;;;;;;;;3.40;99.90;;;;;;5088193;28;19955;-81
2022/01/16 11:27:00;;;;;;;;;;;3.40;99.90;;;;;;5094480;28;19992;-80
2022/01/16 11:29:27;;;;;;;;;;;3.40;99.90;;;;;;5093757;28;19934;-80
2022/01/16 11:31:55;;;;;;;;;;;3.50;99.90;;;;;;5092176;28;20031;-80
2022/01/16 11:34:22;;;;;;;;;;;3.50;99.90;;;;;;5091611;28;19935;-80
2022/01/16 11:36:50;;;;;;;;;;;3.50;99.90;;;;;;5098096;28;19932;-80
2022/01/16 11:39:17;;;;;;;;;;;3.50;99.90;;;;;;5088553;28;19944;-80
2022/01/16 11:41:50;;;;;;;;;;;3.50;99.90;;;;;;5113214;28;20015;-75
2022/01/16 11:44:22;;;;;;;;;;;3.50;99.90;;;;;;5109707;28;19915;-80
2022/01/16 11:46:49;;;;;;;;;;;3.50;99.90;;;;;;5114522;22;19924;-81
2022/01/16 11:49:19;;;;;;;;;;;3.60;99.90;;;;;;5115968;28;19928;-80
2022/01/16 11:52:02;;;;;;;;;;;3.50;99.90;;;;;;5107823;28;19916;-73
2022/01/16 11:57:05;;;;;;;;;;;3.40;99.90;;;;;;5919976;22;19922;-82
2022/01/16 11:59:39;;;;;;;;;;;3.50;99.90;;;;;;5102098;28;19924;-78
2022/01/16 12:02:17;;;;;;;;;;;3.60;99.90;;;;;;5110552;28;19924;-80
2022/01/16 12:04:55;;;;;;;;;;;3.60;99.90;;;;;;5105504;28;19908;-80
2022/01/16 12:07:45;;;;;;;;;;;3.60;99.90;;;;;;5106705;28;19924;-80
2022/01/16 12:10:13;;;;;;;;;;;3.60;99.90;;;;;;5104780;28;19983;-81
2022/01/16 12:12:40;;;;;;;;;;;3.60;99.90;;;;;;5109302;28;19955;-81
2022/01/16 12:15:08;;;;;;;;;;;3.70;99.90;;;;;;5111362;28;20038;-80
2022/01/16 12:17:35;;;;;;;;;;;3.70;99.90;;;;;;5111334;28;19992;-80
2022/01/16 12:20:17;;;;;;;;;;;3.70;99.90;;;;;;5102066;28;19971;-80
2022/01/16 12:22:46;;;;;;;;;;;3.70;99.90;;;;;;5120640;22;19952;-81
2022/01/16 12:25:21;;;;;;;;;;;4.10;99.90;;;;;;5084775;28;19932;-82
2022/01/16 12:27:57;;;;;;;;;;;3.80;99.90;;;;;;5063462;28;19929;-77
2022/01/16 12:30:41;;;;;;;;;;;3.70;99.90;;;;;;5079415;22;19940;-79
2022/01/16 12:33:26;;;;;;;;;;;3.70;99.90;;;;;;5095830;28;20211;-81
2022/01/16 12:38:28;;;;;;;;;;;3.70;99.90;;;;;;5329259;22;19947;-74
2022/01/16 12:46:08;;;;;;;;;;;3.70;99.90;;;;;;5502147;22;19915;-79
2022/01/16 12:48:39;;;;;;;;;;;3.70;99.90;;;;;;5529953;22;19923;-80
2022/01/16 12:53:43;;;;;;;;;;;3.70;99.90;;;;;;5425589;22;19912;-78
2022/01/16 12:56:21;;;;;;;;;;;3.80;99.90;;;;;;5113792;28;19912;-81
2022/01/16 12:59:10;;;;;;;;;;;;;;;;;;;;;
2022/01/16 13:03:58;;;;;;;;;;;3.80;99.90;;;;;;5217046;22;19924;-78
2022/01/16 13:06:27;;;;;;;;;;;3.80;99.90;;;;;;5104853;28;19931;-82
2022/01/16 13:08:55;;;;;;;;;;;3.90;99.90;;;;;;5098534;28;19915;-79
2022/01/16 13:11:32;;;;;;;;;;;3.80;99.90;;;;;;5097840;28;19924;-82
2022/01/16 13:14:00;;;;;;;;;;;3.90;99.90;;;;;;5107769;28;19915;-81
2022/01/16 13:16:27;;;;;;;;;;;3.80;99.90;;;;;;5257206;22;19931;-82
2022/01/16 13:24:10;;;;;;;;;;;3.80;99.90;;;;;;5405480;22;19908;-79
2022/01/16 13:26:37;;;;;;;;;;;3.80;99.90;;;;;;5113201;28;19922;-76
2022/01/16 13:31:41;;;;;;;;;;;3.90;99.90;;;;;;5188629;22;19958;-81
2022/01/16 13:37:01;;;;;;;;;;;3.90;99.90;;;;;;5178061;22;19922;-80
2022/01/16 13:42:17;;;;;;;;;;;3.90;99.90;;;;;;5456090;22;19908;-69
2022/01/16 13:44:47;;;;;;;;;;;3.80;99.90;;;;;;5101430;28;19936;-80
2022/01/16 13:47:17;;;;;;;;;;;4.00;99.90;;;;;;5145511;22;19924;-76
2022/01/16 13:49:45;;;;;;;;;;;4.00;99.90;;;;;;5043360;28;20379;-76
2022/01/16 13:52:12;;;;;;;;;;;4.10;99.90;;;;;;5023721;28;20923;-76
2022/01/16 13:54:39;;;;;;;;;;;4.10;99.90;;;;;;5014744;28;19933;-75
2022/01/16 13:57:05;;;;;;;;;;;4.20;99.90;;;;;;5015570;28;20467;-72
2022/01/16 13:59:33;;;;;;;;;;;4.20;99.90;;;;;;5009700;28;20039;-74
2022/01/16 14:02:05;;;;;;;;;;;4.20;99.90;;;;;;5010644;28;19933;-72
2022/01/16 14:04:39;;;;;;;;;;;4.20;99.90;;;;;;5015859;28;19933;-72
2022/01/16 14:07:05;;;;;;;;;;;4.20;99.90;;;;;;5016263;28;20419;-73
2022/01/16 14:09:44;;;;;;;;;;;4.30;99.90;;;;;;5024289;28;19933;-76
2022/01/16 14:12:11;;;;;;;;;;;4.30;99.90;;;;;;5016087;28;19930;-77
2022/01/16 14:14:40;;;;;;;;;;;4.30;99.90;;;;;;5012212;28;19945;-77
2022/01/16 14:17:27;;;;;;;;;;;4.30;99.90;;;;;;5016709;28;20023;-77
2022/01/16 14:20:23;;;;;;;;;;;4.20;99.90;;;;;;5026689;28;19925;-77
2022/01/16 14:22:50;;;;;;;;;;;4.30;99.90;;;;;;5031438;28;19955;-79
2022/01/16 14:25:21;;;;;;;;;;;4.20;99.90;;;;;;5026687;28;19959;-78
2022/01/16 14:27:47;;;;;;;;;;;4.20;99.90;;;;;;5022439;28;19961;-79
2022/01/16 14:30:16;;;;;;;;;;;4.20;99.90;;;;;;5018168;28;19936;-77
2022/01/16 14:32:42;;;;;;;;;;;4.20;99.90;;;;;;5019939;28;19933;-77
2022/01/16 14:35:09;;;;;;;;;;;4.20;99.90;;;;;;5033075;28;19980;-77
2022/01/16 14:37:36;;;;;;;;;;;4.20;99.90;;;;;;5026284;28;19933;-77
2022/01/16 14:40:03;;;;;;;;;;;4.20;99.90;;;;;;5028783;28;20004;-77
2022/01/16 14:42:36;;;;;;;;;;;4.20;99.90;;;;;;5027247;28;19940;-77
2022/01/16 14:45:04;;;;;;;;;;;4.20;99.90;;;;;;5026297;28;20023;-76
2022/01/16 14:47:32;;;;;;;;;;;4.20;99.90;;;;;;5029694;28;19938;-77
2022/01/16 14:49:59;;;;;;;;;;;4.20;99.90;;;;;;5024438;28;19925;-75
2022/01/16 14:52:26;;;;;;;;;;;4.20;99.90;;;;;;5028544;28;20368;-77
2022/01/16 14:54:53;;;;;;;;;;;4.20;99.90;;;;;;5030738;28;19925;-77
2022/01/16 14:57:21;;;;;;;;;;;4.20;99.90;;;;;;5028847;28;19925;-78
2022/01/16 14:59:47;;;;;;;;;;;4.20;99.90;;;;;;5028530;28;19924;-78
2022/01/16 15:02:14;;;;;;;;;;;4.20;99.90;;;;;;5031040;28;19932;-76
2022/01/16 15:04:42;;;;;;;;;;;4.20;99.90;;;;;;5030486;28;19925;-76
2022/01/16 15:07:09;;;;;;;;;;;4.20;99.90;;;;;;5027311;28;19940;-77
2022/01/16 15:09:36;;;;;;;;;;;4.20;99.90;;;;;;5030593;28;19931;-77
2022/01/16 15:12:03;;;;;;;;;;;4.30;99.90;;;;;;5024239;28;19936;-77
2022/01/16 15:14:29;;;;;;;;;;;4.20;99.90;;;;;;5021138;28;20306;-78
2022/01/16 15:16:58;;;;;;;;;;;4.30;99.90;;;;;;5030063;28;20407;-77
2022/01/16 15:19:30;;;;;;;;;;;4.30;99.90;;;;;;5031029;28;19925;-76
2022/01/16 15:22:12;;;;;;;;;;;4.20;99.90;;;;;;5030769;28;19936;-77
2022/01/16 15:24:39;;;;;;;;;;;4.20;99.90;;;;;;5028605;28;19932;-77
2022/01/16 15:27:06;;;;;;;;;;;4.20;99.90;;;;;;5030452;28;19929;-77
2022/01/16 15:29:33;;;;;;;;;;;4.30;99.90;;;;;;5032106;28;20350;-77
2022/01/16 15:32:00;;;;;;;;;;;4.30;99.90;;;;;;5032713;28;19929;-77
2022/01/16 15:34:26;;;;;;;;;;;4.20;99.90;;;;;;5030731;28;19933;-77
2022/01/16 15:36:53;;;;;;;;;;;4.30;99.90;;;;;;5028238;28;20485;-77
2022/01/16 15:39:22;;;;;;;;;;;4.30;99.90;;;;;;5027765;28;19933;-77
2022/01/16 15:41:49;;;;;;;;;;;4.30;99.90;;;;;;5023058;28;20221;-77
2022/01/16 15:44:16;;;;;;;;;;;4.30;99.90;;;;;;5025241;28;19931;-77